Aérodrome :
LOGIN :

S'inscrire | Disclaimer

   EN    FR    IT 

 










Légende :    VFR   VFR Marginal   IFR   IFR Intensif   IFR Très Intensif
Visi : 
Plafond : 
>= 8 km
>= 3000ft
5 à 8 km
1000 à 3000 ft
1500m à 5 km
500 à 1000 ft
800 à 1500m
200 à 500 ft
< 800m
< 200 ft
Symboles :   Orages  Brouillard  Fortes neiges  Fortes précipitations  Vent > 20 kt
SIGMETs :   Divers  Orages  Givrage  Turbulence  Onde Orograph.  Cendres Volcan.






- Altitude de l'aérodrome : 505 ft
- Code IATA : SXB


LFST - Strasbourg

DERNIER METAR :
  • 292000Z AUTO 00000KT CAVOK M03/M04 Q1028 TEMPO 4000 MIFG

METARs EXPIRÉS :
  • 291930Z AUTO 30002KT CAVOK M01/M02 Q1028 TEMPO 4000 MIFG
  • 291900Z AUTO 27002KT CAVOK M01/M03 Q1028 NOSIG
  • 291830Z AUTO VRB02KT CAVOK M01/M03 Q1027 NOSIG
  • 291800Z AUTO 16003KT CAVOK M02/M04 Q1027 NOSIG
  • 291730Z AUTO 15002KT CAVOK M01/M04 Q1027 NOSIG

TAF TAF LFST
Valide du 29 à 18h jusqu'au 30 à 18h UTC


291700Z 2918/3018 19004KT CAVOK
PROB30
TEMPO 2921/3003 4000 MIFG
PROB40
TEMPO 3009/3012 -RASN BKN020
BECMG 3012/3014 26010KT



MET'MAP, la Météo Aéronautique d'un coup d'oeil ! - Copyright ORBIFLY Décembre 2007 - Disclaimer

ORBIFLY MET'MAP TEAM :

Programmation & Développement : Alexandra Zaïnal
Sur une idée originale de : Baudouin d'Aumeries
Soutien technique & logistique : Manuel Goepfert
Assistance : Marc-Olivier Méhu




SOURCES & CREDITS :

   NOAA